Terminal Aerodrome Forecast
Issued by NWS

Home | Current Version | Previous Version | Graphics & Text | Print | Product List | Glossary On
Versions: 1 2 3 4 5 6 7 8 9 10 11 12 13 14 15 16 17 18 19 20 21 22 23
000
FTUS43 KMPX 221500 AAA
TAFRNH
TAF AMD
KRNH 221525Z 2215/2312 13005KT P6SM FEW250
     FM221700 15012G20KT P6SM BKN050
     FM222200 16014G21KT P6SM BKN090
     FM230200 16011KT P6SM OVC030
     FM230600 17009KT 5SM -SHRA BR OVC020
     FM231000 18006KT 4SM BR OVC020=

USA.gov is the U.S. government's official web portal to all federal, state and local government web resources and services.